Главная страница
METAR-TAF:

METAR-TAF

Аэропорты :

Анапа, Россия

Витязево

широта: 44-54N, долгота: 037-19E, высота над уровнем моря: м

Текущие метеонаблюдения

Эта сводка был подготовлена 34 минут назад, в 19:00 UTC
Ветер 8 Узел от северо-восточный
Температура 7°C
Влажность 76%
Давление 1024 hPa
Видимость 10 км и более

METAR: URKA 261900Z AUTO 04004MPS 9999 // NCD 07/03 Q1024 RMK QFE764/1019

Время: 22:34 (19:34 UTC)

Прогноз

Эта сводка был подготовлена 5 часа и 39 минут назад, в 13:55 UTC
Прогноз действительный с 26-го 15 UTC до 27-го 15 UTC
Ветер 6 Узел от западный с порывами до 16 Узел
Видимость 10 км и более
Отдельные облака на высоте 3000 фута
изменения
С 26-го 20 UTC до 26-го 21 UTC
Ветер 6 Узел от восточный с порывами до 16 Узел
временами
С 26-го 21 UTC до 27-го 06 UTC
Видимость: 1000 м
Отдельные облака на высоте 500 фута
дымка

TAF: URKA 261355Z 2615/2715 26003G08MPS 9999 SCT030 BECMG 2620/2621 08003G08MPS TEMPO 2621/2706 1000 BR SCT005

Метеонаблюдения и прогнозы для более 4000 аэропортов (сводки METAR и TAF).

Имеющиеся станции представлены на карте желтыми и красными точками.

Чтобы увидеть название станции, наведите на нее мышь.

Затем щелкните, чтобы увидеть метеонаблюдения и метеопрогнозы.

Управление картой: чтобы увеличить масштаб, щелкните зеленые кнопки с черным крестиком; чтобы уменьшить масштаб, щелкните зеленую кнопку с тире; для просмотра соседних карт щелкайте зеленые стрелки.


METAR-TAF: